Time;durP1;ratioP1;P1;durP2;ratioP2;P2;SDS_P1;SDS_P2;PMS_P1;PMS_P2;Temp;Humidity;BMP_temperature;BMP_pressure;BME280_temperature;BME280_humidity;BME280_pressure;Samples;Min_cycle;Max_cycle;Signal;HPM_P1;HPM_P2
2021/05/23 00:01:17;;;;;;;6.13;3.57;;;;;;;;;;4991538;28;20451;-69
2021/05/23 00:03:44;;;;;;;7.30;3.73;;;;;;;;;;4990051;28;20992;-70
2021/05/23 00:06:11;;;;;;;5.50;3.40;;;;;;;;;;4991654;28;20525;-69
2021/05/23 00:08:38;;;;;;;4.03;3.27;;;;;;;;;;5001893;28;20821;-69
2021/05/23 00:11:06;;;;;;;3.67;3.33;;;;;;;;;;4987760;28;20503;-69
2021/05/23 00:13:35;;;;;;;6.30;3.60;;;;;;;;;;4983303;28;20509;-70
2021/05/23 00:16:03;;;;;;;5.17;3.40;;;;;;;;;;4990977;28;20470;-70
2021/05/23 00:18:30;;;;;;;4.70;3.50;;;;;;;;;;4990910;28;20985;-70
2021/05/23 00:20:57;;;;;;;8.00;4.10;;;;;;;;;;4990481;28;20469;-70
2021/05/23 00:23:24;;;;;;;6.60;3.90;;;;;;;;;;4991884;28;20450;-68
2021/05/23 00:25:52;;;;;;;3.83;3.50;;;;;;;;;;4990553;28;20477;-69
2021/05/23 00:28:19;;;;;;;4.80;3.30;;;;;;;;;;5002296;28;20500;-69
2021/05/23 00:30:47;;;;;;;6.17;4.00;;;;;;;;;;5007681;28;20489;-70
2021/05/23 00:33:14;;;;;;;4.80;3.67;;;;;;;;;;4981012;28;20469;-70
2021/05/23 00:35:40;;;;;;;4.43;3.43;;;;;;;;;;5000113;28;20564;-70
2021/05/23 00:38:08;;;;;;;6.20;4.13;;;;;;;;;;5005828;28;20469;-70
2021/05/23 00:40:35;;;;;;;5.53;3.40;;;;;;;;;;4998815;28;20479;-68
2021/05/23 00:43:02;;;;;;;7.10;4.27;;;;;;;;;;4994930;28;20562;-69
2021/05/23 00:45:29;;;;;;;6.63;3.70;;;;;;;;;;4978672;28;20482;-69
2021/05/23 00:47:56;;;;;;;5.63;3.77;;;;;;;;;;4994678;28;20500;-69
2021/05/23 00:50:24;;;;;;;4.83;4.33;;;;;;;;;;5002931;28;20470;-69
2021/05/23 00:52:51;;;;;;;5.10;3.80;;;;;;;;;;4998741;28;20588;-70
2021/05/23 00:55:19;;;;;;;6.17;3.77;;;;;;;;;;4990966;28;20551;-69
2021/05/23 00:57:45;;;;;;;4.87;3.70;;;;;;;;;;4996642;28;20469;-70
2021/05/23 01:00:12;;;;;;;5.00;4.00;;;;;;;;;;4999574;28;21023;-69
2021/05/23 01:02:43;;;;;;;6.50;3.80;;;;;;;;;;5005703;28;20465;-68
2021/05/23 01:05:12;;;;;;;5.37;3.83;;;;;;;;;;5001604;28;20489;-68
2021/05/23 01:07:40;;;;;;;7.03;4.40;;;;;;;;;;5005141;28;20466;-69
2021/05/23 01:10:07;;;;;;;6.90;4.03;;;;;;;;;;5009580;28;20466;-69
2021/05/23 01:12:53;;;;;;;6.80;4.23;;;;;;;;;;5003949;28;20992;-69
2021/05/23 01:15:20;;;;;;;7.33;4.37;;;;;;;;;;5011886;28;20485;-68
2021/05/23 01:17:47;;;;;;;6.40;4.30;;;;;;;;;;5000229;28;20538;-69
2021/05/23 01:20:28;;;;;;;8.63;4.03;;;;;;;;;;5007107;28;20476;-69
2021/05/23 01:23:07;;;;;;;7.53;3.87;;;;;;;;;;5006493;28;20468;-70
2021/05/23 01:25:39;;;;;;;5.40;4.00;;;;;;;;;;4989986;28;20563;-69
2021/05/23 01:28:07;;;;;;;5.00;3.97;;;;;;;;;;5006024;28;20600;-68
2021/05/23 01:30:36;;;;;;;6.67;3.57;;;;;;;;;;5009980;28;20466;-69
2021/05/23 01:33:03;;;;;;;6.10;4.07;;;;;;;;;;5004732;28;20465;-70
2021/05/23 01:35:32;;;;;;;5.33;3.40;;;;;;;;;;5007809;28;20922;-69
2021/05/23 01:38:02;;;;;;;7.97;3.80;;;;;;;;;;5006225;28;20470;-70
2021/05/23 01:40:29;;;;;;;8.83;4.47;;;;;;;;;;5007574;28;20542;-67
2021/05/23 01:42:57;;;;;;;6.47;3.93;;;;;;;;;;5000069;28;21143;-70
2021/05/23 01:45:24;;;;;;;6.47;4.03;;;;;;;;;;5009812;28;20493;-69
2021/05/23 01:47:50;;;;;;;7.43;3.80;;;;;;;;;;4999939;28;20480;-69
2021/05/23 01:50:17;;;;;;;6.87;3.40;;;;;;;;;;5012419;28;20515;-70
2021/05/23 01:52:55;;;;;;;3.80;3.40;;;;;;;;;;5002649;28;20542;-70
2021/05/23 01:55:22;;;;;;;5.40;3.47;;;;;;;;;;4998285;28;20497;-70
2021/05/23 01:57:49;;;;;;;4.97;3.87;;;;;;;;;;5003103;28;20466;-69
2021/05/23 02:00:18;;;;;;;5.80;3.93;;;;;;;;;;5000435;28;20463;-70
2021/05/23 02:02:44;;;;;;;7.90;4.50;;;;;;;;;;5000912;28;20459;-68
2021/05/23 02:05:11;;;;;;;4.90;3.80;;;;;;;;;;4997698;28;20539;-69
2021/05/23 02:07:38;;;;;;;4.60;4.20;;;;;;;;;;5000932;28;20470;-69
2021/05/23 02:10:05;;;;;;;5.40;3.57;;;;;;;;;;5010893;28;20469;-68
2021/05/23 02:12:33;;;;;;;6.23;4.30;;;;;;;;;;5006095;28;20504;-69
2021/05/23 02:15:00;;;;;;;5.07;3.80;;;;;;;;;;5009488;28;20488;-69
2021/05/23 02:17:28;;;;;;;7.60;3.90;;;;;;;;;;5006366;28;20473;-68
2021/05/23 02:19:54;;;;;;;5.77;3.77;;;;;;;;;;5010293;28;20988;-70
2021/05/23 02:22:21;;;;;;;8.90;4.13;;;;;;;;;;4997103;28;20476;-69
2021/05/23 02:24:47;;;;;;;6.63;4.30;;;;;;;;;;5010569;28;20908;-69
2021/05/23 02:27:14;;;;;;;8.63;4.70;;;;;;;;;;5004963;28;20469;-68
2021/05/23 02:29:41;;;;;;;6.53;4.13;;;;;;;;;;5008790;28;20825;-70
2021/05/23 02:32:08;;;;;;;5.43;4.40;;;;;;;;;;5002059;28;20525;-69
2021/05/23 02:34:45;;;;;;;5.50;3.77;;;;;;;;;;5004631;28;20490;-70
2021/05/23 02:37:11;;;;;;;5.57;3.97;;;;;;;;;;4998214;28;20969;-68
2021/05/23 02:39:38;;;;;;;4.93;4.30;;;;;;;;;;5008443;28;20481;-69
2021/05/23 02:42:05;;;;;;;6.70;4.20;;;;;;;;;;4994032;28;20484;-70
2021/05/23 02:44:31;;;;;;;4.70;3.87;;;;;;;;;;5003107;28;20497;-69
2021/05/23 02:46:58;;;;;;;9.97;4.23;;;;;;;;;;5000398;28;20514;-69
2021/05/23 02:49:24;;;;;;;7.00;4.10;;;;;;;;;;5010555;28;20496;-69
2021/05/23 02:51:52;;;;;;;6.13;4.20;;;;;;;;;;5002609;28;20489;-70
2021/05/23 02:54:19;;;;;;;6.13;4.23;;;;;;;;;;5004000;28;20505;-70
2021/05/23 02:56:45;;;;;;;5.60;4.27;;;;;;;;;;4993292;28;20979;-70
2021/05/23 02:59:12;;;;;;;6.73;4.13;;;;;;;;;;5000739;28;20469;-68
2021/05/23 03:01:38;;;;;;;5.40;3.57;;;;;;;;;;5000667;28;20465;-69
2021/05/23 03:04:05;;;;;;;10.80;4.63;;;;;;;;;;5002425;28;20493;-70
2021/05/23 03:06:32;;;;;;;7.73;4.67;;;;;;;;;;5005083;28;20480;-70
2021/05/23 03:09:00;;;;;;;4.60;4.13;;;;;;;;;;5002077;28;20472;-70
2021/05/23 03:11:26;;;;;;;5.00;4.37;;;;;;;;;;5001048;28;20580;-70
2021/05/23 03:13:53;;;;;;;7.00;4.77;;;;;;;;;;5004651;28;20465;-70
2021/05/23 03:16:19;;;;;;;5.67;4.10;;;;;;;;;;5006973;28;20472;-70
2021/05/23 03:18:46;;;;;;;8.00;4.40;;;;;;;;;;5004274;28;20465;-70
2021/05/23 03:21:13;;;;;;;4.77;4.23;;;;;;;;;;5006995;28;20885;-69
2021/05/23 03:23:39;;;;;;;7.13;4.23;;;;;;;;;;4996601;28;20466;-69
2021/05/23 03:26:07;;;;;;;7.23;4.20;;;;;;;;;;5006595;28;20469;-70
2021/05/23 03:28:33;;;;;;;7.60;4.60;;;;;;;;;;5003246;28;20461;-70
2021/05/23 03:31:00;;;;;;;9.60;4.83;;;;;;;;;;5008469;28;20484;-70
2021/05/23 03:33:26;;;;;;;5.40;4.00;;;;;;;;;;5003055;28;20474;-68
2021/05/23 03:35:53;;;;;;;8.80;4.70;;;;;;;;;;5010235;28;21014;-70
2021/05/23 03:38:20;;;;;;;7.40;3.93;;;;;;;;;;5003626;28;20458;-70
2021/05/23 03:40:46;;;;;;;5.87;4.73;;;;;;;;;;5002886;28;20465;-69
2021/05/23 03:43:14;;;;;;;4.27;3.80;;;;;;;;;;5004257;28;20465;-66
2021/05/23 03:45:40;;;;;;;6.90;4.70;;;;;;;;;;5002793;28;20477;-69
2021/05/23 03:48:07;;;;;;;5.50;4.37;;;;;;;;;;5010041;28;20825;-68
2021/05/23 03:50:34;;;;;;;6.20;4.30;;;;;;;;;;5000683;28;20477;-69
2021/05/23 03:53:01;;;;;;;7.80;4.30;;;;;;;;;;5010353;28;20499;-69
2021/05/23 03:55:28;;;;;;;8.63;5.30;;;;;;;;;;4995868;28;20497;-69
2021/05/23 03:57:55;;;;;;;6.60;5.10;;;;;;;;;;5010021;28;20938;-70
2021/05/23 04:00:23;;;;;;;4.80;4.23;;;;;;;;;;4991750;28;20487;-69
2021/05/23 04:02:52;;;;;;;6.20;4.27;;;;;;;;;;5010107;28;20469;-69
2021/05/23 04:05:19;;;;;;;9.87;4.77;;;;;;;;;;5000703;28;20483;-70
2021/05/23 04:07:46;;;;;;;7.30;4.83;;;;;;;;;;5001781;28;20457;-74
2021/05/23 04:10:15;;;;;;;11.00;5.50;;;;;;;;;;5003396;28;20462;-77
2021/05/23 04:12:44;;;;;;;7.30;5.53;;;;;;;;;;5006737;28;20490;-70
2021/05/23 04:15:11;;;;;;;9.00;5.33;;;;;;;;;;4998545;28;20514;-73
2021/05/23 04:17:39;;;;;;;8.57;5.50;;;;;;;;;;5006923;28;20881;-72
2021/05/23 04:20:07;;;;;;;10.00;6.00;;;;;;;;;;5001133;28;20507;-72
2021/05/23 04:22:33;;;;;;;8.20;5.43;;;;;;;;;;5009308;28;20461;-75
2021/05/23 04:25:01;;;;;;;8.53;5.00;;;;;;;;;;5005015;28;20485;-68
2021/05/23 04:27:28;;;;;;;8.23;5.20;;;;;;;;;;5009974;28;20471;-73
2021/05/23 04:29:55;;;;;;;6.00;4.50;;;;;;;;;;4991476;28;20461;-76
2021/05/23 04:32:21;;;;;;;5.83;5.10;;;;;;;;;;5012332;28;20566;-72
2021/05/23 04:34:49;;;;;;;7.37;5.30;;;;;;;;;;5008614;28;20520;-69
2021/05/23 04:37:16;;;;;;;7.70;5.13;;;;;;;;;;5012124;28;20474;-80
2021/05/23 04:39:42;;;;;;;6.07;5.20;;;;;;;;;;5008179;28;20977;-73
2021/05/23 04:42:09;;;;;;;8.03;5.00;;;;;;;;;;5013750;28;20465;-71
2021/05/23 04:44:36;;;;;;;6.23;4.83;;;;;;;;;;5008583;28;20481;-69
2021/05/23 04:47:02;;;;;;;6.90;4.27;;;;;;;;;;4993462;28;20487;-68
2021/05/23 04:49:29;;;;;;;8.97;5.70;;;;;;;;;;5009652;28;20470;-73
2021/05/23 04:51:57;;;;;;;6.63;5.40;;;;;;;;;;5005572;28;20497;-69
2021/05/23 04:54:24;;;;;;;6.40;5.13;;;;;;;;;;5007127;28;20549;-71
2021/05/23 04:56:50;;;;;;;7.00;4.87;;;;;;;;;;5008296;28;20475;-67
2021/05/23 04:59:17;;;;;;;7.20;5.33;;;;;;;;;;5011343;28;20472;-69
2021/05/23 05:01:44;;;;;;;6.83;4.70;;;;;;;;;;5010892;28;20971;-68
2021/05/23 05:04:10;;;;;;;7.47;4.93;;;;;;;;;;5006607;28;20492;-70
2021/05/23 05:06:37;;;;;;;6.90;5.03;;;;;;;;;;5010423;28;20500;-72
2021/05/23 05:09:05;;;;;;;8.90;4.80;;;;;;;;;;5009180;28;20471;-68
2021/05/23 05:11:31;;;;;;;6.33;4.43;;;;;;;;;;5006672;28;20490;-69
2021/05/23 05:13:58;;;;;;;5.60;5.07;;;;;;;;;;5009675;28;20496;-69
2021/05/23 05:16:24;;;;;;;8.00;5.30;;;;;;;;;;5010506;28;20469;-68
2021/05/23 05:18:51;;;;;;;7.90;4.83;;;;;;;;;;5009182;28;20477;-66
2021/05/23 05:21:18;;;;;;;6.07;4.40;;;;;;;;;;5004507;28;20497;-68
2021/05/23 05:23:44;;;;;;;6.30;4.70;;;;;;;;;;5005602;28;20531;-69
2021/05/23 05:26:12;;;;;;;6.23;5.13;;;;;;;;;;5009362;28;20497;-69
2021/05/23 05:28:38;;;;;;;6.77;4.80;;;;;;;;;;5000060;28;20522;-69
2021/05/23 05:31:05;;;;;;;8.03;4.93;;;;;;;;;;5011364;28;21165;-69
2021/05/23 05:33:32;;;;;;;7.53;4.40;;;;;;;;;;5007937;28;20469;-70
2021/05/23 05:35:58;;;;;;;7.40;5.17;;;;;;;;;;5000928;28;20486;-69
2021/05/23 05:38:25;;;;;;;6.83;4.50;;;;;;;;;;4998960;28;20472;-70
2021/05/23 05:40:51;;;;;;;4.93;4.43;;;;;;;;;;4999402;28;20461;-70
2021/05/23 05:43:19;;;;;;;6.67;4.43;;;;;;;;;;5010867;28;20461;-69
2021/05/23 05:45:45;;;;;;;4.93;3.57;;;;;;;;;;5007641;28;21202;-70
2021/05/23 05:48:13;;;;;;;6.33;3.00;;;;;;;;;;5005052;28;20885;-69
2021/05/23 05:50:40;;;;;;;5.50;2.73;;;;;;;;;;5000941;28;20975;-70
2021/05/23 05:53:07;;;;;;;6.73;3.73;;;;;;;;;;5011796;28;20482;-69
2021/05/23 05:55:34;;;;;;;5.70;3.10;;;;;;;;;;5003165;28;20491;-71
2021/05/23 05:58:00;;;;;;;3.87;2.87;;;;;;;;;;4998150;23;20503;-66
2021/05/23 06:00:28;;;;;;;4.43;2.40;;;;;;;;;;4971626;28;20513;-66
2021/05/23 06:02:54;;;;;;;6.57;2.77;;;;;;;;;;4971809;28;20485;-67
2021/05/23 06:05:21;;;;;;;3.10;2.07;;;;;;;;;;4962074;28;20487;-65
2021/05/23 06:07:48;;;;;;;8.60;2.00;;;;;;;;;;4973112;28;20487;-64
2021/05/23 06:10:16;;;;;;;8.30;2.57;;;;;;;;;;4971483;28;20476;-65
2021/05/23 06:12:42;;;;;;;5.47;1.87;;;;;;;;;;4971322;28;20525;-65
2021/05/23 06:15:10;;;;;;;4.53;1.80;;;;;;;;;;4962460;28;20830;-66
2021/05/23 06:17:37;;;;;;;4.03;1.80;;;;;;;;;;4971610;28;20482;-65
2021/05/23 06:20:05;;;;;;;4.67;1.83;;;;;;;;;;4964926;28;20466;-65
2021/05/23 06:22:31;;;;;;;4.67;1.90;;;;;;;;;;4973678;28;20451;-66
2021/05/23 06:24:58;;;;;;;8.40;1.90;;;;;;;;;;4971762;28;20958;-66
2021/05/23 06:27:25;;;;;;;3.57;1.87;;;;;;;;;;4966707;28;20481;-65
2021/05/23 06:29:51;;;;;;;3.40;1.53;;;;;;;;;;4972314;28;20971;-65
2021/05/23 06:32:18;;;;;;;4.33;1.80;;;;;;;;;;4974321;28;20580;-65
2021/05/23 06:34:45;;;;;;;5.83;2.10;;;;;;;;;;4973097;28;20875;-66
2021/05/23 06:37:12;;;;;;;2.43;1.47;;;;;;;;;;4964685;28;20474;-66
2021/05/23 06:39:39;;;;;;;5.07;2.37;;;;;;;;;;4972855;28;20459;-65
2021/05/23 06:42:06;;;;;;;4.83;1.80;;;;;;;;;;4972137;28;20542;-65
2021/05/23 06:44:32;;;;;;;7.10;1.90;;;;;;;;;;4967233;28;20534;-66
2021/05/23 06:46:59;;;;;;;3.20;1.43;;;;;;;;;;4971714;28;20989;-65
2021/05/23 06:49:26;;;;;;;3.27;1.37;;;;;;;;;;4972821;28;20518;-65
2021/05/23 06:51:53;;;;;;;4.70;1.60;;;;;;;;;;4972613;28;20495;-65
2021/05/23 06:54:20;;;;;;;8.33;1.97;;;;;;;;;;4971170;28;20493;-65
2021/05/23 06:56:46;;;;;;;1.77;1.30;;;;;;;;;;4972763;28;20451;-66
2021/05/23 06:59:13;;;;;;;2.10;1.30;;;;;;;;;;4967526;28;20471;-66
2021/05/23 07:01:40;;;;;;;2.83;1.67;;;;;;;;;;4969353;28;20452;-65
2021/05/23 07:04:06;;;;;;;4.13;1.40;;;;;;;;;;4972858;28;20459;-65
2021/05/23 07:06:33;;;;;;;2.60;1.40;;;;;;;;;;4971688;28;20467;-65
2021/05/23 07:09:00;;;;;;;3.70;1.60;;;;;;;;;;4972955;28;20861;-65
2021/05/23 07:11:27;;;;;;;4.87;1.90;;;;;;;;;;4966186;28;20491;-66
2021/05/23 07:13:54;;;;;;;2.87;1.53;;;;;;;;;;4965462;28;20490;-64
2021/05/23 07:16:21;;;;;;;5.47;1.70;;;;;;;;;;4972100;28;20459;-65
2021/05/23 07:18:47;;;;;;;2.97;1.57;;;;;;;;;;4965161;28;20476;-65
2021/05/23 07:21:14;;;;;;;11.37;2.40;;;;;;;;;;4972075;28;20836;-64
2021/05/23 07:23:41;;;;;;;8.27;2.00;;;;;;;;;;4964527;28;20475;-66
2021/05/23 07:26:08;;;;;;;6.30;2.20;;;;;;;;;;4971797;28;20456;-66
2021/05/23 07:28:35;;;;;;;7.67;2.27;;;;;;;;;;4973012;28;20478;-67
2021/05/23 07:31:02;;;;;;;8.00;5.20;;;;;;;;;;4971476;28;20947;-66
2021/05/23 07:33:28;;;;;;;5.77;2.37;;;;;;;;;;4972504;28;20491;-66
2021/05/23 07:35:55;;;;;;;5.90;2.27;;;;;;;;;;4971653;28;21983;-67
2021/05/23 07:38:21;;;;;;;5.20;2.30;;;;;;;;;;4967360;28;20488;-67
2021/05/23 07:40:48;;;;;;;3.37;2.27;;;;;;;;;;4971277;28;20455;-67
2021/05/23 07:43:16;;;;;;;6.23;2.03;;;;;;;;;;4963728;28;20444;-65
2021/05/23 07:45:42;;;;;;;5.13;2.30;;;;;;;;;;4969897;28;20471;-67
2021/05/23 07:48:09;;;;;;;5.67;1.90;;;;;;;;;;4974089;28;20475;-66
2021/05/23 07:50:35;;;;;;;4.17;2.20;;;;;;;;;;4975613;28;20432;-67
2021/05/23 07:53:02;;;;;;;6.43;1.70;;;;;;;;;;4980805;28;20489;-66
2021/05/23 07:55:29;;;;;;;3.00;1.77;;;;;;;;;;4982066;28;20705;-67
2021/05/23 07:57:56;;;;;;;4.47;2.17;;;;;;;;;;4980346;28;20486;-65
2021/05/23 08:00:24;;;;;;;3.93;1.80;;;;;;;;;;4972610;28;20475;-65
2021/05/23 08:02:50;;;;;;;3.70;1.60;;;;;;;;;;4972614;28;20534;-65
2021/05/23 08:05:17;;;;;;;2.73;1.77;;;;;;;;;;4974761;28;20578;-65
2021/05/23 08:07:44;;;;;;;4.03;2.20;;;;;;;;;;4976220;28;20475;-67
2021/05/23 08:10:11;;;;;;;4.10;1.67;;;;;;;;;;4976317;28;20942;-65
2021/05/23 08:12:38;;;;;;;4.10;2.00;;;;;;;;;;4975506;28;20513;-67
2021/05/23 08:15:05;;;;;;;3.70;1.30;;;;;;;;;;4976958;28;20453;-67
2021/05/23 08:17:32;;;;;;;2.60;1.33;;;;;;;;;;4975971;28;20475;-66
2021/05/23 08:19:59;;;;;;;4.27;1.80;;;;;;;;;;4976532;28;20455;-66
2021/05/23 08:22:25;;;;;;;4.70;1.47;;;;;;;;;;4974383;28;20958;-67
2021/05/23 08:24:52;;;;;;;3.63;1.57;;;;;;;;;;4974227;28;20881;-65
2021/05/23 08:27:19;;;;;;;4.20;2.07;;;;;;;;;;4975744;28;20554;-65
2021/05/23 08:29:45;;;;;;;4.13;1.70;;;;;;;;;;4973473;28;20475;-65
2021/05/23 08:32:12;;;;;;;4.53;1.63;;;;;;;;;;4976576;28;20483;-65
2021/05/23 08:34:40;;;;;;;3.87;1.60;;;;;;;;;;4975581;28;20444;-66
2021/05/23 08:37:06;;;;;;;2.90;1.70;;;;;;;;;;4976695;28;20974;-66
2021/05/23 08:39:33;;;;;;;2.97;1.30;;;;;;;;;;4976261;28;20513;-65
2021/05/23 08:42:00;;;;;;;3.03;1.50;;;;;;;;;;4976386;28;20466;-68
2021/05/23 08:44:27;;;;;;;3.50;1.53;;;;;;;;;;4976009;28;20534;-67
2021/05/23 08:46:54;;;;;;;2.43;1.30;;;;;;;;;;4960132;28;20479;-66
2021/05/23 08:49:22;;;;;;;3.23;1.53;;;;;;;;;;4956884;29;20437;-68
2021/05/23 08:51:50;;;;;;;3.77;1.30;;;;;;;;;;4958845;28;21089;-67
2021/05/23 08:54:17;;;;;;;8.57;1.90;;;;;;;;;;4975290;28;20467;-66
2021/05/23 08:56:44;;;;;;;4.20;1.67;;;;;;;;;;4975340;28;20455;-67
2021/05/23 08:59:11;;;;;;;5.00;1.60;;;;;;;;;;4976202;28;20557;-66
2021/05/23 09:01:38;;;;;;;2.90;1.30;;;;;;;;;;4961854;28;20452;-66
2021/05/23 09:04:06;;;;;;;3.60;1.90;;;;;;;;;;4956592;28;20464;-67
2021/05/23 09:06:34;;;;;;;7.00;2.00;;;;;;;;;;4956065;28;20459;-70
2021/05/23 09:09:04;;;;;;;5.20;2.40;;;;;;;;;;4961241;28;20478;-65
2021/05/23 09:11:30;;;;;;;3.87;2.20;;;;;;;;;;4975793;28;20490;-66
2021/05/23 09:13:57;;;;;;;4.60;1.90;;;;;;;;;;4975500;28;20457;-66
2021/05/23 09:16:24;;;;;;;3.50;1.93;;;;;;;;;;4974455;28;20515;-66
2021/05/23 09:18:51;;;;;;;3.80;2.30;;;;;;;;;;4975242;28;20475;-65
2021/05/23 09:21:19;;;;;;;6.53;2.67;;;;;;;;;;4975210;28;20806;-64
2021/05/23 09:23:48;;;;;;;4.17;2.30;;;;;;;;;;4965883;28;20472;-64
2021/05/23 09:26:17;;;;;;;3.67;2.47;;;;;;;;;;4974484;28;20453;-65
2021/05/23 09:28:43;;;;;;;4.90;2.40;;;;;;;;;;4974675;28;20816;-64
2021/05/23 09:31:14;;;;;;;3.20;2.30;;;;;;;;;;4973853;28;20475;-64
2021/05/23 09:33:42;;;;;;;6.87;3.63;;;;;;;;;;4974580;28;20487;-64
2021/05/23 09:36:08;;;;;;;2.87;2.27;;;;;;;;;;4975100;28;20459;-64
2021/05/23 09:38:35;;;;;;;5.10;2.83;;;;;;;;;;4974753;28;20485;-66
2021/05/23 09:41:02;;;;;;;6.97;2.90;;;;;;;;;;4965253;28;20819;-64
2021/05/23 09:43:29;;;;;;;10.10;5.80;;;;;;;;;;4971640;28;20444;-64
2021/05/23 09:45:56;;;;;;;10.23;5.33;;;;;;;;;;4974991;28;20451;-64
2021/05/23 09:48:23;;;;;;;3.40;2.40;;;;;;;;;;4973546;28;20852;-64
2021/05/23 09:50:51;;;;;;;5.00;2.33;;;;;;;;;;4954841;29;21038;-64
2021/05/23 09:53:22;;;;;;;7.10;5.40;;;;;;;;;;4968268;28;20487;-65
2021/05/23 09:55:52;;;;;;;8.50;6.60;;;;;;;;;;4973388;28;20958;-64
2021/05/23 09:58:20;;;;;;;3.80;2.00;;;;;;;;;;4972878;28;20501;-65
2021/05/23 10:00:47;;;;;;;3.83;1.70;;;;;;;;;;4974294;28;20538;-62
2021/05/23 10:03:21;;;;;;;4.57;2.27;;;;;;;;;;4969667;28;20832;-62
2021/05/23 10:05:48;;;;;;;3.23;1.80;;;;;;;;;;4973748;28;20470;-63
2021/05/23 10:08:15;;;;;;;3.80;1.97;;;;;;;;;;4974344;28;20475;-63
2021/05/23 10:10:41;;;;;;;4.40;2.47;;;;;;;;;;4973842;28;20456;-65
2021/05/23 10:13:08;;;;;;;3.30;2.20;;;;;;;;;;4973451;28;20905;-64
2021/05/23 10:15:36;;;;;;;5.40;2.00;;;;;;;;;;4974490;28;20459;-64
2021/05/23 10:18:04;;;;;;;4.70;2.00;;;;;;;;;;4964882;28;20472;-64
2021/05/23 10:20:31;;;;;;;5.47;2.00;;;;;;;;;;4973703;28;20470;-66
2021/05/23 10:22:58;;;;;;;3.80;1.70;;;;;;;;;;4974037;28;20454;-64
2021/05/23 10:25:25;;;;;;;4.70;2.00;;;;;;;;;;4974172;28;20835;-64
2021/05/23 10:27:52;;;;;;;3.60;1.80;;;;;;;;;;4973479;28;20471;-64
2021/05/23 10:30:19;;;;;;;6.30;2.10;;;;;;;;;;4973449;28;20459;-63
2021/05/23 10:32:46;;;;;;;4.70;1.77;;;;;;;;;;4974268;28;20510;-64
2021/05/23 10:35:16;;;;;;;2.60;2.00;;;;;;;;;;4972818;28;20459;-64
2021/05/23 10:37:43;;;;;;;6.67;2.00;;;;;;;;;;4971424;28;20498;-65
2021/05/23 10:40:20;;;;;;;5.37;2.07;;;;;;;;;;4971533;28;20447;-64
2021/05/23 10:42:51;;;;;;;4.00;1.70;;;;;;;;;;4973772;28;20450;-65
2021/05/23 10:45:21;;;;;;;4.40;1.90;;;;;;;;;;4972562;28;20502;-65
2021/05/23 10:47:48;;;;;;;4.50;1.87;;;;;;;;;;4971716;28;20526;-65
2021/05/23 10:50:16;;;;;;;4.53;1.80;;;;;;;;;;4971301;28;20451;-65
2021/05/23 10:52:44;;;;;;;4.17;1.73;;;;;;;;;;4972363;28;20479;-65
2021/05/23 10:55:13;;;;;;;3.17;1.70;;;;;;;;;;4972179;28;20462;-65
2021/05/23 10:57:41;;;;;;;2.70;1.27;;;;;;;;;;4971981;28;20491;-65
2021/05/23 11:00:09;;;;;;;3.00;1.70;;;;;;;;;;4972388;28;20452;-65
2021/05/23 11:02:40;;;;;;;3.43;1.60;;;;;;;;;;4973850;28;20451;-63
2021/05/23 11:05:07;;;;;;;3.13;1.50;;;;;;;;;;4973772;28;20455;-63
2021/05/23 11:07:34;;;;;;;3.40;1.93;;;;;;;;;;4973537;28;20482;-63
2021/05/23 11:10:01;;;;;;;1.90;1.20;;;;;;;;;;4974251;28;20478;-63
2021/05/23 11:12:28;;;;;;;2.20;1.30;;;;;;;;;;4973517;28;20584;-64
2021/05/23 11:14:56;;;;;;;2.53;1.50;;;;;;;;;;4973968;28;20451;-64
2021/05/23 11:17:23;;;;;;;2.33;1.33;;;;;;;;;;4973974;28;20476;-64
2021/05/23 11:19:49;;;;;;;2.53;1.20;;;;;;;;;;4974265;28;20497;-64
2021/05/23 11:22:16;;;;;;;2.93;1.30;;;;;;;;;;4974476;28;20459;-64
2021/05/23 11:24:45;;;;;;;1.80;1.60;;;;;;;;;;4976508;28;20470;-64
2021/05/23 11:27:13;;;;;;;3.70;1.50;;;;;;;;;;4973656;28;20481;-64
2021/05/23 11:29:44;;;;;;;3.47;1.47;;;;;;;;;;4973082;28;20487;-64
2021/05/23 11:32:14;;;;;;;2.23;1.20;;;;;;;;;;4973352;28;20475;-63
2021/05/23 11:34:41;;;;;;;3.30;1.70;;;;;;;;;;4973233;28;20482;-64
2021/05/23 11:37:08;;;;;;;2.80;1.30;;;;;;;;;;4972932;28;20467;-63
2021/05/23 11:39:34;;;;;;;3.57;1.63;;;;;;;;;;4972113;28;20482;-65
2021/05/23 11:42:03;;;;;;;2.63;1.60;;;;;;;;;;4973481;28;20459;-63
2021/05/23 11:44:36;;;;;;;2.50;1.20;;;;;;;;;;4973210;28;20478;-65
2021/05/23 11:47:03;;;;;;;4.20;1.80;;;;;;;;;;4973070;28;20482;-63
2021/05/23 11:49:30;;;;;;;2.83;1.37;;;;;;;;;;4973348;28;20972;-63
2021/05/23 11:52:00;;;;;;;4.23;1.80;;;;;;;;;;4973195;28;20525;-63
2021/05/23 11:54:27;;;;;;;2.57;1.77;;;;;;;;;;4973152;28;20477;-64
2021/05/23 11:56:54;;;;;;;2.63;1.07;;;;;;;;;;4972828;28;20481;-64
2021/05/23 11:59:21;;;;;;;2.10;1.40;;;;;;;;;;4990977;23;21049;-66
2021/05/23 12:01:49;;;;;;;2.03;1.43;;;;;;;;;;4974342;28;20588;-66
2021/05/23 12:04:16;;;;;;;1.50;1.40;;;;;;;;;;4972946;28;20447;-66
2021/05/23 12:06:43;;;;;;;2.90;1.40;;;;;;;;;;4972405;28;20549;-66
2021/05/23 12:09:11;;;;;;;1.90;1.63;;;;;;;;;;4973020;28;20471;-66
2021/05/23 12:11:39;;;;;;;2.80;1.50;;;;;;;;;;4972550;28;20485;-66
2021/05/23 12:14:06;;;;;;;5.00;1.87;;;;;;;;;;4973076;28;20455;-66
2021/05/23 12:16:33;;;;;;;2.10;1.47;;;;;;;;;;4972417;28;20465;-66
2021/05/23 12:19:01;;;;;;;2.20;1.70;;;;;;;;;;4972961;28;20807;-66
2021/05/23 12:21:30;;;;;;;2.17;1.37;;;;;;;;;;4973011;28;20554;-66
2021/05/23 12:23:57;;;;;;;3.50;1.40;;;;;;;;;;4973309;28;20462;-66
2021/05/23 12:26:26;;;;;;;2.40;1.40;;;;;;;;;;4972750;28;20447;-67
2021/05/23 12:28:53;;;;;;;2.33;1.50;;;;;;;;;;4972946;28;20478;-66
2021/05/23 12:31:21;;;;;;;2.73;1.60;;;;;;;;;;4972907;28;20457;-66
2021/05/23 12:33:52;;;;;;;2.27;1.20;;;;;;;;;;4972427;28;20527;-66
2021/05/23 12:36:19;;;;;;;2.53;1.40;;;;;;;;;;4972181;28;20538;-67
2021/05/23 12:38:56;;;;;;;3.23;1.87;;;;;;;;;;4972809;28;20471;-66
2021/05/23 12:41:22;;;;;;;5.97;2.10;;;;;;;;;;4972256;28;20843;-66
2021/05/23 12:43:49;;;;;;;2.87;1.80;;;;;;;;;;4972584;28;20505;-66
2021/05/23 12:46:16;;;;;;;2.27;1.50;;;;;;;;;;4971559;28;20967;-66
2021/05/23 12:48:43;;;;;;;2.97;1.60;;;;;;;;;;4972183;28;20475;-66
2021/05/23 12:51:12;;;;;;;3.20;1.63;;;;;;;;;;4974257;28;20447;-66
2021/05/23 12:53:42;;;;;;;2.80;1.87;;;;;;;;;;4975559;28;21009;-66
2021/05/23 12:56:11;;;;;;;3.20;1.60;;;;;;;;;;4975717;28;20451;-66
2021/05/23 12:58:47;;;;;;;2.77;2.17;;;;;;;;;;4975448;28;20482;-66
2021/05/23 13:01:15;;;;;;;3.00;1.80;;;;;;;;;;4975453;28;20517;-66
2021/05/23 13:03:42;;;;;;;3.33;2.00;;;;;;;;;;4975306;28;21086;-66
2021/05/23 13:06:09;;;;;;;4.70;2.33;;;;;;;;;;4975618;28;20505;-66
2021/05/23 13:08:37;;;;;;;3.83;2.30;;;;;;;;;;4975391;28;20510;-66
2021/05/23 13:11:03;;;;;;;3.33;2.00;;;;;;;;;;4975656;28;20461;-66
2021/05/23 13:13:40;;;;;;;3.70;2.17;;;;;;;;;;4975082;28;20490;-66
2021/05/23 13:16:07;;;;;;;3.40;2.47;;;;;;;;;;4975156;28;20478;-66
2021/05/23 13:18:33;;;;;;;2.43;2.23;;;;;;;;;;4975429;28;20845;-66
2021/05/23 13:21:09;;;;;;;2.93;2.50;;;;;;;;;;4975530;28;20443;-66
2021/05/23 13:23:37;;;;;;;4.00;2.77;;;;;;;;;;4975378;28;20427;-63
2021/05/23 13:26:03;;;;;;;3.93;3.10;;;;;;;;;;4975168;28;20451;-63
2021/05/23 13:28:30;;;;;;;2.73;2.53;;;;;;;;;;4974854;28;20475;-63
2021/05/23 13:30:56;;;;;;;3.23;2.67;;;;;;;;;;4975092;28;20823;-66
2021/05/23 13:33:24;;;;;;;3.13;2.80;;;;;;;;;;4975212;28;20490;-63
2021/05/23 13:35:50;;;;;;;3.17;2.53;;;;;;;;;;4974504;28;20452;-63
2021/05/23 13:38:17;;;;;;;4.10;2.80;;;;;;;;;;4974963;28;20483;-63
2021/05/23 13:40:44;;;;;;;2.70;2.50;;;;;;;;;;4975094;28;20455;-63
2021/05/23 13:43:11;;;;;;;5.87;2.90;;;;;;;;;;4975034;28;20501;-65
2021/05/23 13:45:38;;;;;;;4.20;2.80;;;;;;;;;;4974698;28;20455;-66
2021/05/23 13:48:05;;;;;;;3.70;2.40;;;;;;;;;;4975007;28;20467;-66
2021/05/23 13:50:31;;;;;;;2.97;2.77;;;;;;;;;;4974226;28;20456;-65
2021/05/23 13:52:58;;;;;;;3.60;2.70;;;;;;;;;;4974803;28;21001;-66
2021/05/23 13:55:24;;;;;;;3.20;2.90;;;;;;;;;;4974358;28;20497;-66
2021/05/23 13:57:52;;;;;;;3.37;2.40;;;;;;;;;;4974332;28;20542;-65
2021/05/23 14:00:19;;;;;;;3.60;3.30;;;;;;;;;;4974424;28;20475;-65
2021/05/23 14:02:45;;;;;;;3.27;2.97;;;;;;;;;;4974215;28;20438;-65
2021/05/23 14:05:12;;;;;;;3.43;3.13;;;;;;;;;;4974686;28;21020;-63
2021/05/23 14:07:39;;;;;;;4.23;3.87;;;;;;;;;;4974810;28;20894;-63
2021/05/23 14:10:06;;;;;;;4.07;3.43;;;;;;;;;;4975282;28;20452;-63
2021/05/23 14:12:33;;;;;;;3.40;3.10;;;;;;;;;;4974666;28;20483;-63
2021/05/23 14:15:00;;;;;;;9.67;4.07;;;;;;;;;;4974261;28;20951;-63
2021/05/23 14:17:27;;;;;;;5.20;3.70;;;;;;;;;;4974353;28;20447;-63
2021/05/23 14:19:54;;;;;;;4.33;3.30;;;;;;;;;;4974252;28;20954;-63
2021/05/23 14:22:21;;;;;;;6.17;4.00;;;;;;;;;;4974637;28;20479;-63
2021/05/23 14:24:48;;;;;;;4.10;3.03;;;;;;;;;;4968662;28;20447;-63
2021/05/23 14:27:14;;;;;;;4.70;4.23;;;;;;;;;;4969798;28;20794;-64
2021/05/23 14:29:41;;;;;;;4.53;3.83;;;;;;;;;;4965424;28;20457;-64
2021/05/23 14:32:09;;;;;;;3.57;3.37;;;;;;;;;;4970028;28;20895;-65
2021/05/23 14:34:35;;;;;;;3.63;3.33;;;;;;;;;;4974211;28;20456;-65
2021/05/23 14:37:02;;;;;;;5.07;3.70;;;;;;;;;;4973436;28;20455;-64
2021/05/23 14:39:28;;;;;;;3.87;3.50;;;;;;;;;;4974220;28;20537;-64
2021/05/23 14:41:55;;;;;;;3.80;3.50;;;;;;;;;;4971094;28;21027;-64
2021/05/23 14:44:22;;;;;;;3.90;3.50;;;;;;;;;;4973761;28;20471;-64